createdAt,value
2023-08-12T00:01:22.339Z,15.30
2023-08-12T00:03:50.723Z,15.30
2023-08-12T00:06:19.078Z,15.20
2023-08-12T00:08:47.223Z,15.20
2023-08-12T00:11:15.409Z,15.20
2023-08-12T00:13:45.214Z,15.20
2023-08-12T00:16:13.423Z,15.20
2023-08-12T00:18:41.543Z,15.20
2023-08-12T00:21:10.928Z,15.10
2023-08-12T00:23:41.480Z,15.00
2023-08-12T00:26:09.771Z,14.80
2023-08-12T00:28:38.031Z,14.80
2023-08-12T00:31:07.628Z,14.80
2023-08-12T00:33:35.930Z,14.80
2023-08-12T00:36:04.193Z,14.70
2023-08-12T00:38:32.282Z,14.70
2023-08-12T00:41:00.424Z,14.80
2023-08-12T00:43:28.477Z,14.80
2023-08-12T00:45:56.672Z,14.90
2023-08-12T00:48:26.630Z,14.70
2023-08-12T00:50:55.269Z,14.70
2023-08-12T00:53:23.703Z,14.40
2023-08-12T00:55:51.983Z,14.40
2023-08-12T00:58:20.464Z,14.70
2023-08-12T01:00:48.652Z,14.80
2023-08-12T01:03:16.954Z,14.80
2023-08-12T01:05:48.547Z,14.70
2023-08-12T01:08:16.653Z,14.70
2023-08-12T01:10:50.921Z,14.70
2023-08-12T01:13:28.082Z,14.80
2023-08-12T01:15:59.490Z,14.60
2023-08-12T01:18:29.021Z,14.30
2023-08-12T01:20:58.818Z,14.30
2023-08-12T01:23:28.537Z,14.20
2023-08-12T01:25:56.686Z,14.10
2023-08-12T01:28:24.724Z,14.10
2023-08-12T01:30:59.116Z,14.10
2023-08-12T01:33:33.825Z,14.10
2023-08-12T01:36:09.626Z,14.00
2023-08-12T01:38:42.709Z,14.10
2023-08-12T01:41:13.539Z,14.10
2023-08-12T01:43:43.488Z,14.10
2023-08-12T01:46:11.859Z,14.10
2023-08-12T01:48:40.027Z,14.00
2023-08-12T01:51:08.792Z,13.80
2023-08-12T01:53:36.990Z,13.80
2023-08-12T01:56:06.599Z,13.70
2023-08-12T01:58:34.755Z,13.80
2023-08-12T02:01:02.907Z,13.60
2023-08-12T02:03:31.190Z,13.70
2023-08-12T02:05:59.431Z,13.80
2023-08-12T02:08:27.590Z,13.50
2023-08-12T02:10:55.758Z,13.60
2023-08-12T02:13:27.520Z,13.70
2023-08-12T02:15:55.741Z,13.70
2023-08-12T02:18:24.710Z,13.70
2023-08-12T02:20:52.820Z,13.50
2023-08-12T02:23:20.943Z,13.50
2023-08-12T02:25:49.408Z,13.50
2023-08-12T02:28:17.522Z,13.50
2023-08-12T02:30:47.012Z,13.60
2023-08-12T02:33:15.126Z,13.70
2023-08-12T02:35:43.862Z,13.70
2023-08-12T02:38:12.019Z,13.80
2023-08-12T02:40:40.173Z,13.90
2023-08-12T02:43:08.345Z,13.90
2023-08-12T02:45:36.508Z,13.90
2023-08-12T02:48:07.087Z,14.00
2023-08-12T02:50:35.250Z,14.00
2023-08-12T02:53:03.645Z,14.00
2023-08-12T02:55:33.683Z,13.90
2023-08-12T02:58:02.884Z,13.90
2023-08-12T03:00:31.216Z,14.00
2023-08-12T03:02:59.499Z,13.90
2023-08-12T03:05:29.088Z,13.80
2023-08-12T03:07:58.551Z,13.70
2023-08-12T03:10:26.643Z,13.70
2023-08-12T03:12:54.780Z,13.60
2023-08-12T03:15:24.204Z,13.60
2023-08-12T03:17:53.350Z,13.40
2023-08-12T03:20:23.286Z,13.30
2023-08-12T03:22:53.503Z,13.20
2023-08-12T03:25:21.646Z,13.30
2023-08-12T03:27:49.776Z,13.30
2023-08-12T03:30:17.964Z,13.30
2023-08-12T03:32:46.816Z,13.30
2023-08-12T03:35:17.314Z,13.20
2023-08-12T03:37:47.393Z,13.10
2023-08-12T03:40:17.657Z,13.20
2023-08-12T03:42:45.933Z,13.30
2023-08-12T03:45:14.527Z,13.40
2023-08-12T03:47:42.713Z,13.50
2023-08-12T03:50:11.994Z,13.60
2023-08-12T03:52:40.212Z,13.60
2023-08-12T03:55:09.604Z,13.50
2023-08-12T03:57:40.161Z,13.50
2023-08-12T04:00:09.726Z,13.60
2023-08-12T04:02:42.857Z,13.70
2023-08-12T04:05:11.967Z,14.00
2023-08-12T04:07:40.132Z,14.10
2023-08-12T04:10:09.346Z,14.10
2023-08-12T04:12:38.938Z,14.20
2023-08-12T04:15:08.185Z,14.20
2023-08-12T04:17:36.847Z,14.20
2023-08-12T04:20:08.944Z,14.10
2023-08-12T04:22:38.103Z,14.00
2023-08-12T04:25:07.188Z,14.10
2023-08-12T04:27:36.686Z,14.20
2023-08-12T04:30:07.399Z,14.20
2023-08-12T04:32:35.598Z,14.20
2023-08-12T04:35:04.211Z,14.30
2023-08-12T04:37:33.225Z,14.20
2023-08-12T04:40:01.850Z,14.20
2023-08-12T04:42:30.897Z,14.20
2023-08-12T04:44:59.355Z,14.20
2023-08-12T04:47:30.163Z,14.20
2023-08-12T04:49:58.757Z,14.20
2023-08-12T04:52:27.806Z,14.30
2023-08-12T04:54:56.142Z,14.30
2023-08-12T04:57:25.996Z,14.30
2023-08-12T04:59:55.178Z,14.30
2023-08-12T05:02:23.532Z,14.40
2023-08-12T05:04:54.116Z,14.50
2023-08-12T05:07:23.480Z,14.50
2023-08-12T05:09:51.859Z,14.70
2023-08-12T05:12:20.682Z,14.70
2023-08-12T05:14:48.786Z,14.80
2023-08-12T05:17:16.968Z,14.80
2023-08-12T05:19:45.211Z,14.90
2023-08-12T05:22:14.701Z,15.10
2023-08-12T05:24:42.812Z,15.30
2023-08-12T05:27:10.992Z,15.30
2023-08-12T05:29:39.117Z,15.40
2023-08-12T05:32:07.821Z,15.60
2023-08-12T05:34:35.994Z,15.80
2023-08-12T05:37:04.144Z,15.90
2023-08-12T05:39:33.580Z,16.00
2023-08-12T05:42:01.669Z,16.20
2023-08-12T05:44:29.758Z,16.40
2023-08-12T05:47:00.317Z,16.50
2023-08-12T05:49:28.389Z,16.50
2023-08-12T05:51:56.534Z,16.50
2023-08-12T05:54:24.734Z,16.60
2023-08-12T05:56:54.648Z,16.60
2023-08-12T05:59:22.805Z,16.70
2023-08-12T06:01:52.354Z,16.80
2023-08-12T06:04:20.752Z,17.00
2023-08-12T06:06:49.043Z,17.20
2023-08-12T06:09:17.137Z,17.30
2023-08-12T06:11:45.308Z,17.60
2023-08-12T06:14:14.709Z,17.80
2023-08-12T06:16:42.828Z,17.90
2023-08-12T06:19:11.477Z,17.90
2023-08-12T06:21:39.681Z,18.00
2023-08-12T06:24:08.213Z,18.00
2023-08-12T06:26:36.502Z,18.20
2023-08-12T06:29:06.223Z,18.30
2023-08-12T06:31:36.052Z,18.40
2023-08-12T06:34:04.190Z,18.40
2023-08-12T06:36:32.476Z,18.50
2023-08-12T06:39:00.656Z,18.70
2023-08-12T06:41:28.811Z,18.80
2023-08-12T06:43:57.043Z,18.90
2023-08-12T06:46:25.208Z,19.10
2023-08-12T06:48:54.688Z,19.30
2023-08-12T06:51:22.799Z,19.50
2023-08-12T06:53:51.233Z,19.60
2023-08-12T06:56:19.316Z,19.80
2023-08-12T06:58:47.427Z,20.00
2023-08-12T07:01:15.883Z,20.00
2023-08-12T07:03:44.217Z,19.90
2023-08-12T07:06:13.711Z,20.20
2023-08-12T07:08:41.841Z,20.30
2023-08-12T07:11:09.922Z,20.20
2023-08-12T07:13:38.119Z,20.40
2023-08-12T07:16:06.416Z,20.30
2023-08-12T07:18:34.707Z,20.30
2023-08-12T07:21:02.813Z,20.50
2023-08-12T07:23:33.071Z,20.40
2023-08-12T07:26:01.283Z,20.50
2023-08-12T07:28:29.428Z,20.70
2023-08-12T07:30:57.577Z,20.90
2023-08-12T07:33:25.840Z,20.80
2023-08-12T07:35:53.973Z,20.80
2023-08-12T07:38:22.098Z,21.30
2023-08-12T07:40:52.353Z,21.50
2023-08-12T07:43:20.515Z,21.50
2023-08-12T07:46:08.381Z,21.80
2023-08-12T07:48:39.310Z,21.50
2023-08-12T07:51:07.636Z,22.00
2023-08-12T07:53:35.688Z,22.10
2023-08-12T07:56:05.537Z,22.70
2023-08-12T07:58:33.655Z,22.80
2023-08-12T08:01:01.764Z,22.60
2023-08-12T08:03:29.906Z,22.30
2023-08-12T08:05:58.118Z,22.40
2023-08-12T08:08:26.253Z,22.20
2023-08-12T08:10:54.337Z,22.00
2023-08-12T08:13:23.795Z,22.40
2023-08-12T08:15:51.961Z,22.80
2023-08-12T08:18:20.105Z,23.10
2023-08-12T08:20:48.259Z,23.70
2023-08-12T08:23:16.508Z,23.60
2023-08-12T08:25:44.588Z,24.10
2023-08-12T08:28:13.022Z,24.10
2023-08-12T08:30:42.519Z,24.20
2023-08-12T08:33:10.980Z,24.70
2023-08-12T08:35:39.347Z,23.60
2023-08-12T08:38:07.529Z,23.70
2023-08-12T08:40:36.014Z,24.40
2023-08-12T08:43:05.826Z,23.50
2023-08-12T08:45:35.395Z,23.90
2023-08-12T08:48:07.248Z,24.50
2023-08-12T08:50:36.587Z,24.40
2023-08-12T08:53:06.926Z,23.70
2023-08-12T08:55:35.157Z,23.70
2023-08-12T08:58:05.906Z,24.50
2023-08-12T09:00:34.659Z,25.10
2023-08-12T09:03:05.174Z,25.90
2023-08-12T09:05:34.711Z,25.60
2023-08-12T09:08:05.931Z,25.20
2023-08-12T09:10:35.018Z,25.80
2023-08-12T09:13:03.442Z,26.10
2023-08-12T09:15:31.980Z,26.80
2023-08-12T09:18:00.285Z,26.50
2023-08-12T09:20:30.035Z,26.50
2023-08-12T09:22:59.513Z,26.80
2023-08-12T09:25:28.812Z,26.10
2023-08-12T09:27:57.837Z,26.20
2023-08-12T09:30:26.383Z,26.40
2023-08-12T09:33:03.178Z,26.60
2023-08-12T09:35:37.560Z,25.90
2023-08-12T09:38:07.472Z,26.50
2023-08-12T09:40:37.039Z,26.60
2023-08-12T09:43:06.354Z,27.00
2023-08-12T09:45:37.761Z,26.90
2023-08-12T09:48:09.120Z,27.00
2023-08-12T09:50:39.185Z,26.70
2023-08-12T09:53:07.986Z,27.40
2023-08-12T09:55:37.695Z,27.10
2023-08-12T09:58:09.029Z,27.40
2023-08-12T10:00:37.750Z,27.50
2023-08-12T10:03:07.055Z,26.20
2023-08-12T10:05:36.336Z,27.30
2023-08-12T10:08:06.706Z,27.60
2023-08-12T10:10:37.015Z,27.30
2023-08-12T10:13:08.518Z,27.70
2023-08-12T10:15:36.827Z,28.00
2023-08-12T10:18:09.589Z,28.00
2023-08-12T10:20:40.971Z,28.00
2023-08-12T10:23:16.122Z,28.40
2023-08-12T10:25:45.935Z,27.80
2023-08-12T10:28:14.963Z,28.40
2023-08-12T10:30:43.929Z,28.40
2023-08-12T10:33:12.620Z,28.30
2023-08-12T10:35:45.836Z,28.20
2023-08-12T10:38:19.932Z,28.10
2023-08-12T10:40:48.152Z,28.40
2023-08-12T10:43:16.595Z,28.50
2023-08-12T10:45:49.279Z,28.30
2023-08-12T10:48:23.335Z,28.70
2023-08-12T10:50:55.944Z,29.40
2023-08-12T10:53:30.653Z,29.40
2023-08-12T10:56:00.390Z,29.00
2023-08-12T10:58:35.504Z,29.10
2023-08-12T11:01:04.344Z,28.90
2023-08-12T11:03:38.970Z,28.80
2023-08-12T11:06:07.564Z,29.10
2023-08-12T11:08:37.977Z,29.20
2023-08-12T11:11:22.081Z,29.20
2023-08-12T11:13:55.848Z,29.30
2023-08-12T11:16:34.698Z,29.60
2023-08-12T11:19:02.931Z,29.40
2023-08-12T11:21:31.563Z,29.20
2023-08-12T11:24:02.059Z,29.40
2023-08-12T11:26:31.030Z,29.30
2023-08-12T11:28:59.179Z,29.90
2023-08-12T11:31:28.428Z,29.40
2023-08-12T11:33:56.980Z,29.30
2023-08-12T11:36:25.216Z,29.40
2023-08-12T11:38:53.578Z,29.80
2023-08-12T11:41:24.870Z,29.70
2023-08-12T11:43:53.008Z,30.00
2023-08-12T11:46:21.218Z,29.70
2023-08-12T11:48:51.853Z,29.40
2023-08-12T11:51:20.549Z,29.80
2023-08-12T11:53:48.777Z,29.60
2023-08-12T11:56:17.279Z,30.20
2023-08-12T11:58:53.336Z,30.40
2023-08-12T12:01:23.250Z,30.60
2023-08-12T12:03:53.564Z,30.80
2023-08-12T12:06:31.345Z,31.00
2023-08-12T12:09:05.422Z,31.10
2023-08-12T12:11:33.890Z,31.40
2023-08-12T12:14:05.209Z,31.60
2023-08-12T12:16:41.588Z,30.60
2023-08-12T12:19:19.018Z,32.20
2023-08-12T12:21:49.405Z,32.40
2023-08-12T12:24:18.584Z,32.10
2023-08-12T12:26:47.895Z,32.30
2023-08-12T12:29:17.537Z,32.30
2023-08-12T12:31:45.713Z,32.20
2023-08-12T12:34:15.386Z,32.10
2023-08-12T12:36:44.104Z,31.80
2023-08-12T12:39:12.195Z,32.50
2023-08-12T12:41:40.336Z,32.40
2023-08-12T12:44:09.604Z,32.20
2023-08-12T12:46:39.073Z,32.70
2023-08-12T12:49:07.382Z,33.90
2023-08-12T12:51:35.505Z,32.80
2023-08-12T12:54:03.706Z,33.10
2023-08-12T12:56:31.880Z,32.80
2023-08-12T12:59:00.324Z,33.10
2023-08-12T13:01:28.515Z,34.10
2023-08-12T13:03:58.037Z,31.90
2023-08-12T13:06:26.142Z,32.30
2023-08-12T13:08:54.444Z,33.10
2023-08-12T13:11:22.553Z,33.10
2023-08-12T13:13:50.656Z,34.20
2023-08-12T13:16:18.873Z,33.90
2023-08-12T13:18:47.018Z,34.00
2023-08-12T13:21:18.994Z,33.00
2023-08-12T13:23:47.603Z,33.30
2023-08-12T13:26:15.813Z,33.80
2023-08-12T13:28:43.987Z,34.50
2023-08-12T13:31:12.454Z,32.90
2023-08-12T13:33:40.534Z,31.70
2023-08-12T13:36:08.548Z,34.20
2023-08-12T13:38:38.042Z,33.90
2023-08-12T13:41:06.157Z,33.20
2023-08-12T13:43:34.236Z,32.80
2023-08-12T13:46:03.079Z,32.40
2023-08-12T13:48:31.357Z,32.10
2023-08-12T13:51:01.623Z,31.30
2023-08-12T13:53:30.363Z,30.90
2023-08-12T13:55:59.870Z,31.20
2023-08-12T13:58:27.917Z,31.90
2023-08-12T14:00:55.999Z,32.50
2023-08-12T14:03:24.498Z,32.50
2023-08-12T14:05:52.651Z,31.80
2023-08-12T14:08:20.915Z,31.40
2023-08-12T14:10:49.121Z,31.20
2023-08-12T14:13:18.610Z,31.00
2023-08-12T14:15:46.907Z,31.40
2023-08-12T14:18:15.069Z,31.30
2023-08-12T14:20:43.318Z,31.10
2023-08-12T14:23:11.399Z,31.30
2023-08-12T14:25:39.529Z,31.20
2023-08-12T14:28:07.981Z,30.80
2023-08-12T14:30:38.938Z,31.10
2023-08-12T14:33:07.708Z,31.10
2023-08-12T14:35:36.893Z,30.90
2023-08-12T14:38:05.253Z,31.20
2023-08-12T14:40:33.315Z,31.90
2023-08-12T14:43:01.400Z,31.60
2023-08-12T14:45:30.196Z,30.60
2023-08-12T14:47:59.661Z,31.40
2023-08-12T14:50:28.820Z,31.20
2023-08-12T14:52:57.948Z,31.20
2023-08-12T14:55:26.029Z,30.90
2023-08-12T14:57:54.330Z,30.70
2023-08-12T15:00:22.787Z,30.80
2023-08-12T15:02:51.020Z,30.30
2023-08-12T15:05:20.784Z,31.00
2023-08-12T15:07:48.937Z,31.60
2023-08-12T15:10:17.111Z,31.30
2023-08-12T15:12:45.126Z,30.80
2023-08-12T15:15:13.306Z,30.20
2023-08-12T15:17:41.355Z,30.40
2023-08-12T15:20:11.453Z,30.10
2023-08-12T15:22:41.008Z,29.80
2023-08-12T15:25:10.263Z,29.60
2023-08-12T15:27:38.922Z,29.10
2023-08-12T15:30:08.646Z,28.90
2023-08-12T15:32:36.824Z,28.80
2023-08-12T15:35:05.324Z,28.70
2023-08-12T15:37:33.473Z,28.60
2023-08-12T15:40:03.896Z,28.50
2023-08-12T15:42:33.848Z,28.30
2023-08-12T15:45:02.636Z,28.20
2023-08-12T15:47:30.873Z,28.10
2023-08-12T15:49:58.910Z,28.10
2023-08-12T15:52:27.561Z,28.40
2023-08-12T15:54:55.755Z,29.10
2023-08-12T15:57:25.240Z,28.90
2023-08-12T15:59:54.303Z,28.30
2023-08-12T16:02:22.462Z,27.80
2023-08-12T16:04:50.623Z,27.90
2023-08-12T16:07:19.745Z,27.60
2023-08-12T16:09:48.014Z,27.60
2023-08-12T16:12:19.909Z,27.80
2023-08-12T16:14:49.423Z,28.00
2023-08-12T16:17:17.510Z,28.50
2023-08-12T16:19:46.504Z,29.90
2023-08-12T16:22:15.009Z,30.50
2023-08-12T16:24:45.720Z,31.10
2023-08-12T16:27:14.266Z,30.70
2023-08-12T16:29:42.318Z,31.00
2023-08-12T16:32:12.056Z,29.90
2023-08-12T16:34:40.347Z,29.80
2023-08-12T16:39:39.528Z,30.60
2023-08-12T16:42:07.825Z,31.30
2023-08-12T16:44:35.941Z,29.90
2023-08-12T16:47:04.217Z,29.90
2023-08-12T16:49:33.667Z,30.00
2023-08-12T16:52:01.785Z,28.50
2023-08-12T16:54:30.734Z,27.80
2023-08-12T16:56:59.405Z,27.60
2023-08-12T16:59:27.734Z,27.40
2023-08-12T17:01:55.877Z,27.30
2023-08-12T17:04:24.071Z,27.30
2023-08-12T17:06:54.037Z,28.00
2023-08-12T17:09:22.119Z,28.40
2023-08-12T17:11:50.315Z,28.30
2023-08-12T17:14:18.443Z,28.40
2023-08-12T17:16:46.661Z,27.90
2023-08-12T17:19:14.818Z,27.90
2023-08-12T17:21:43.380Z,27.80
2023-08-12T17:24:12.853Z,27.90
2023-08-12T17:26:40.990Z,27.90
2023-08-12T17:29:09.044Z,28.10
2023-08-12T17:31:37.368Z,27.50
2023-08-12T17:34:05.822Z,27.50
2023-08-12T17:36:33.925Z,27.40
2023-08-12T17:39:02.276Z,27.00
2023-08-12T17:41:31.705Z,26.80
2023-08-12T17:43:59.827Z,26.90
2023-08-12T17:46:28.269Z,26.80
2023-08-12T17:48:56.430Z,26.80
2023-08-12T17:51:24.526Z,27.10
2023-08-12T17:53:53.005Z,26.80
2023-08-12T17:56:21.332Z,26.60
2023-08-12T17:58:51.476Z,26.30
2023-08-12T18:01:19.748Z,26.20
2023-08-12T18:03:47.877Z,26.10
2023-08-12T18:06:16.326Z,26.00
2023-08-12T18:08:45.637Z,25.70
2023-08-12T18:11:13.720Z,25.50
2023-08-12T18:13:41.835Z,25.40
2023-08-12T18:16:11.342Z,25.40
2023-08-12T18:18:39.628Z,25.40
2023-08-12T18:21:07.808Z,25.30
2023-08-12T18:23:35.878Z,25.30
2023-08-12T18:26:04.053Z,25.20
2023-08-12T18:28:32.133Z,25.20
2023-08-12T18:31:00.372Z,25.10
2023-08-12T18:33:30.110Z,25.10
2023-08-12T18:35:58.251Z,25.00
2023-08-12T18:38:26.345Z,24.80
2023-08-12T18:40:54.462Z,24.80
2023-08-12T18:43:22.574Z,24.70
2023-08-12T18:45:50.951Z,24.60
2023-08-12T18:48:19.300Z,25.90
2023-08-12T18:50:48.823Z,25.20
2023-08-12T18:53:16.883Z,25.00
2023-08-12T18:55:45.487Z,24.90
2023-08-12T18:58:13.544Z,25.90
2023-08-12T19:00:41.747Z,26.00
2023-08-12T19:03:09.994Z,25.30
2023-08-12T19:05:38.657Z,24.50
2023-08-12T19:08:08.271Z,24.00
2023-08-12T19:10:36.381Z,23.70
2023-08-12T19:13:04.550Z,23.50
2023-08-12T19:15:33.064Z,23.30
2023-08-12T19:18:01.344Z,23.50
2023-08-12T19:20:30.026Z,23.40
2023-08-12T19:22:58.206Z,23.30
2023-08-12T19:25:27.699Z,23.30
2023-08-12T19:27:55.807Z,22.80
2023-08-12T19:30:24.015Z,22.60
2023-08-12T19:32:53.625Z,22.60
2023-08-12T19:35:22.966Z,22.70
2023-08-12T19:37:53.018Z,22.80
2023-08-12T19:40:21.671Z,23.20
2023-08-12T19:42:51.246Z,22.90
2023-08-12T19:45:20.152Z,22.80
2023-08-12T19:47:48.381Z,22.60
2023-08-12T19:50:16.756Z,22.30
2023-08-12T19:52:44.900Z,22.20
2023-08-12T19:55:13.019Z,22.10
2023-08-12T19:57:41.637Z,22.00
2023-08-12T20:00:13.450Z,22.00
2023-08-12T20:02:43.452Z,22.00
2023-08-12T20:05:16.276Z,21.90
2023-08-12T20:07:46.660Z,21.80
2023-08-12T20:10:15.834Z,21.40
2023-08-12T20:12:44.335Z,21.20
2023-08-12T20:15:14.635Z,21.10
2023-08-12T20:17:43.853Z,21.10
2023-08-12T20:20:14.369Z,21.20
2023-08-12T20:22:54.580Z,21.20
2023-08-12T20:25:31.384Z,21.10
2023-08-12T20:27:59.827Z,20.90
2023-08-12T20:30:29.657Z,20.90
2023-08-12T20:32:57.950Z,20.90
2023-08-12T20:35:26.138Z,20.90
2023-08-12T20:37:54.269Z,20.80
2023-08-12T20:40:22.523Z,20.80
2023-08-12T20:42:50.646Z,20.90
2023-08-12T20:45:18.991Z,20.90
2023-08-12T20:47:48.528Z,21.00
2023-08-12T20:50:16.941Z,21.00
2023-08-12T20:52:45.330Z,20.70
2023-08-12T20:55:13.419Z,21.00
2023-08-12T20:57:41.494Z,21.00
2023-08-12T21:00:13.334Z,20.90
2023-08-12T21:02:46.474Z,20.40
2023-08-12T21:05:16.151Z,20.40
2023-08-12T21:07:44.407Z,20.50
2023-08-12T21:10:13.195Z,20.50
2023-08-12T21:12:41.355Z,20.50
2023-08-12T21:15:10.100Z,20.50
2023-08-12T21:17:38.278Z,20.40
2023-08-12T21:20:07.365Z,20.30
2023-08-12T21:22:36.848Z,20.50
2023-08-12T21:25:06.021Z,20.50
2023-08-12T21:27:34.145Z,20.50
2023-08-12T21:30:02.456Z,20.60
2023-08-12T21:32:32.631Z,20.60
2023-08-12T21:35:00.757Z,20.70
2023-08-12T21:37:28.860Z,20.70
2023-08-12T21:39:58.434Z,20.60
2023-08-12T21:42:26.628Z,20.50
2023-08-12T21:44:54.818Z,20.30
2023-08-12T21:47:22.933Z,20.40
2023-08-12T21:49:51.318Z,20.40
2023-08-12T21:52:19.454Z,20.40
2023-08-12T21:54:47.575Z,20.30
2023-08-12T21:57:17.006Z,20.20
2023-08-12T21:59:45.141Z,20.20
2023-08-12T22:02:13.607Z,20.10
2023-08-12T22:04:41.876Z,19.90
2023-08-12T22:07:10.056Z,19.70
2023-08-12T22:09:38.201Z,19.50
2023-08-12T22:12:06.713Z,19.30
2023-08-12T22:14:36.604Z,19.30
2023-08-12T22:17:04.717Z,19.30
2023-08-12T22:19:32.883Z,19.50
2023-08-12T22:22:13.321Z,19.50
2023-08-12T22:24:47.684Z,19.50
2023-08-12T22:27:16.009Z,19.40
2023-08-12T22:29:45.486Z,19.30
2023-08-12T22:32:13.946Z,19.60
2023-08-12T22:34:42.277Z,20.00
2023-08-12T22:37:11.433Z,19.70
2023-08-12T22:39:39.640Z,19.50
2023-08-12T22:42:08.435Z,19.40
2023-08-12T22:44:36.560Z,19.40
2023-08-12T22:47:06.799Z,19.30
2023-08-12T22:49:34.959Z,19.20
2023-08-12T22:52:03.118Z,19.10
2023-08-12T22:54:31.295Z,19.10
2023-08-12T22:56:59.586Z,19.10
2023-08-12T22:59:27.776Z,19.10
2023-08-12T23:01:56.849Z,19.00
2023-08-12T23:04:26.923Z,19.10
2023-08-12T23:06:54.992Z,19.10
2023-08-12T23:09:23.156Z,18.90
2023-08-12T23:11:51.233Z,18.80
2023-08-12T23:14:19.353Z,18.60
2023-08-12T23:16:47.527Z,18.50
2023-08-12T23:19:15.632Z,18.50
2023-08-12T23:21:45.142Z,18.50
2023-08-12T23:24:13.300Z,18.60
2023-08-12T23:26:41.510Z,18.60
2023-08-12T23:29:09.543Z,18.60
2023-08-12T23:31:37.619Z,18.40
2023-08-12T23:34:06.282Z,18.30
2023-08-12T23:36:35.017Z,18.20
2023-08-12T23:39:05.524Z,18.20
2023-08-12T23:41:33.693Z,18.00
2023-08-12T23:44:01.806Z,18.00
2023-08-12T23:46:29.941Z,18.00
2023-08-12T23:48:58.043Z,17.90
2023-08-12T23:51:26.218Z,17.90
2023-08-12T23:53:54.301Z,18.00
2023-08-12T23:56:23.866Z,18.10
2023-08-12T23:58:52.028Z,18.10
